createdAt,value
2023-01-12T00:02:22.088Z,10.07
2023-01-12T00:04:49.993Z,9.87
2023-01-12T00:07:18.295Z,11.03
2023-01-12T00:09:45.913Z,11.80
2023-01-12T00:12:13.799Z,9.97
2023-01-12T00:14:41.369Z,11.13
2023-01-12T00:17:11.876Z,12.77
2023-01-12T00:19:40.235Z,13.83
2023-01-12T00:22:11.657Z,15.17
2023-01-12T00:24:45.437Z,14.50
2023-01-12T00:27:16.907Z,15.87
2023-01-12T00:29:46.599Z,17.50
2023-01-12T00:32:20.031Z,18.40
2023-01-12T00:34:47.751Z,12.03
2023-01-12T00:37:15.647Z,12.30
2023-01-12T00:39:53.107Z,9.40
2023-01-12T00:42:42.907Z,11.27
2023-01-12T00:45:31.396Z,10.70
2023-01-12T00:47:59.018Z,10.33
2023-01-12T00:50:26.592Z,10.80
2023-01-12T00:52:54.016Z,8.73
2023-01-12T00:55:21.574Z,9.20
2023-01-12T00:57:49.137Z,8.87
2023-01-12T01:00:17.715Z,8.03
2023-01-12T01:02:45.330Z,9.67
2023-01-12T01:05:13.027Z,9.70
2023-01-12T01:07:40.514Z,7.80
2023-01-12T01:10:09.017Z,9.67
2023-01-12T01:12:36.751Z,11.10
2023-01-12T01:15:04.696Z,10.33
2023-01-12T01:17:32.281Z,10.23
2023-01-12T01:19:59.787Z,10.17
2023-01-12T01:22:27.661Z,8.33
2023-01-12T01:24:55.137Z,7.90
2023-01-12T01:27:22.678Z,6.57
2023-01-12T01:29:50.152Z,7.77
2023-01-12T01:32:17.653Z,7.27
2023-01-12T01:34:46.481Z,7.37
2023-01-12T01:37:14.034Z,8.90
2023-01-12T01:39:41.494Z,8.80
2023-01-12T01:42:28.345Z,10.90
2023-01-12T01:44:59.393Z,7.80
2023-01-12T01:47:39.952Z,6.93
2023-01-12T01:50:18.893Z,7.03
2023-01-12T01:52:53.857Z,6.67
2023-01-12T01:55:37.056Z,6.90
2023-01-12T01:58:15.438Z,7.83
2023-01-12T02:00:44.420Z,6.13
2023-01-12T02:03:13.678Z,6.53
2023-01-12T02:05:46.168Z,7.20
2023-01-12T02:08:51.749Z,6.93
2023-01-12T02:11:39.233Z,5.43
2023-01-12T02:14:25.383Z,5.40
2023-01-12T02:17:31.365Z,5.70
2023-01-12T02:20:39.967Z,5.63
2023-01-12T02:23:54.545Z,6.70
2023-01-12T02:26:53.161Z,5.60
2023-01-12T02:29:38.577Z,6.37
2023-01-12T02:32:30.812Z,7.50
2023-01-12T02:35:22.386Z,5.53
2023-01-12T02:38:03.191Z,7.47
2023-01-12T02:40:59.371Z,7.30
2023-01-12T02:43:31.690Z,6.43
2023-01-12T02:46:23.416Z,6.67
2023-01-12T02:48:56.330Z,8.20
2023-01-12T02:51:51.267Z,6.03
2023-01-12T02:54:21.289Z,5.70
2023-01-12T02:56:53.906Z,5.73
2023-01-12T02:59:27.172Z,7.93
2023-01-12T03:02:04.735Z,8.07
2023-01-12T03:04:33.671Z,6.70
2023-01-12T03:07:01.030Z,5.37
2023-01-12T03:09:37.925Z,6.43
2023-01-12T03:12:19.653Z,6.47
2023-01-12T03:14:51.854Z,7.67
2023-01-12T03:17:40.341Z,6.33
2023-01-12T03:20:24.429Z,6.43
2023-01-12T03:23:00.896Z,8.83
2023-01-12T03:25:32.873Z,7.67
2023-01-12T03:28:04.948Z,6.03
2023-01-12T03:30:56.838Z,5.37
2023-01-12T03:33:25.993Z,7.67
2023-01-12T03:36:22.111Z,6.47
2023-01-12T03:39:32.784Z,6.57
2023-01-12T03:42:29.040Z,5.23
2023-01-12T03:45:39.575Z,5.03
2023-01-12T03:48:47.024Z,6.97
2023-01-12T03:51:24.072Z,8.63
2023-01-12T03:53:53.312Z,9.70
2023-01-12T03:56:25.325Z,7.20
2023-01-12T03:58:53.507Z,7.43
2023-01-12T04:01:21.221Z,6.50
2023-01-12T04:03:48.719Z,6.70
2023-01-12T04:06:16.676Z,5.40
2023-01-12T04:08:44.101Z,8.03
2023-01-12T04:11:30.358Z,7.53
2023-01-12T04:13:57.836Z,9.57
2023-01-12T04:16:25.482Z,7.53
2023-01-12T04:18:52.969Z,10.03
2023-01-12T04:21:39.282Z,7.00
2023-01-12T04:24:06.999Z,9.67
2023-01-12T04:26:34.428Z,12.00
2023-01-12T04:29:02.406Z,13.17
2023-01-12T04:31:29.929Z,11.83
2023-01-12T04:33:57.476Z,17.30
2023-01-12T04:36:25.015Z,14.60
2023-01-12T04:38:52.434Z,12.67
2023-01-12T04:41:19.881Z,17.40
2023-01-12T04:43:47.727Z,13.20
2023-01-12T04:46:15.931Z,15.43
2023-01-12T04:48:45.589Z,14.00
2023-01-12T04:51:13.734Z,13.30
2023-01-12T04:53:41.248Z,15.87
2023-01-12T04:56:09.742Z,12.57
2023-01-12T04:58:37.532Z,12.27
2023-01-12T05:01:19.935Z,8.20
2023-01-12T05:03:47.457Z,7.90
2023-01-12T05:06:14.977Z,8.90
2023-01-12T05:09:01.031Z,12.67
2023-01-12T05:11:29.924Z,10.87
2023-01-12T05:13:58.212Z,10.30
2023-01-12T05:16:26.738Z,9.20
2023-01-12T05:18:54.492Z,9.47
2023-01-12T05:21:23.257Z,9.80
2023-01-12T05:23:54.637Z,13.03
2023-01-12T05:26:22.128Z,14.73
2023-01-12T05:28:50.635Z,13.70
2023-01-12T05:31:19.674Z,17.50
2023-01-12T05:33:48.890Z,18.83
2023-01-12T05:36:18.209Z,14.37
2023-01-12T05:38:45.663Z,16.13
2023-01-12T05:41:14.865Z,16.10
2023-01-12T05:43:52.629Z,16.47
2023-01-12T05:46:27.910Z,18.13
2023-01-12T05:48:57.570Z,17.03
2023-01-12T05:51:27.727Z,18.13
2023-01-12T05:53:55.656Z,20.47
2023-01-12T05:56:28.176Z,23.93
2023-01-12T05:58:58.815Z,20.80
2023-01-12T06:01:28.057Z,16.13
2023-01-12T06:04:01.431Z,13.07
2023-01-12T06:06:31.491Z,11.30
2023-01-12T06:09:00.951Z,24.73
2023-01-12T06:11:47.297Z,17.70
2023-01-12T06:14:17.929Z,12.50
2023-01-12T06:16:45.469Z,13.63
2023-01-12T06:19:13.435Z,17.03
2023-01-12T06:21:41.399Z,16.07
2023-01-12T06:24:09.559Z,25.47
2023-01-12T06:26:37.027Z,28.50
2023-01-12T06:29:07.039Z,32.80
2023-01-12T06:31:34.709Z,30.73
2023-01-12T06:34:02.389Z,39.03
2023-01-12T06:36:29.880Z,36.13
2023-01-12T06:38:57.356Z,32.77
2023-01-12T06:41:43.431Z,22.30
2023-01-12T06:44:10.888Z,22.33
2023-01-12T06:46:38.435Z,32.87
2023-01-12T06:49:06.193Z,28.40
2023-01-12T06:51:33.665Z,24.80
2023-01-12T06:54:01.529Z,21.60
2023-01-12T06:56:29.383Z,24.73
2023-01-12T06:58:56.911Z,21.10
2023-01-12T07:01:27.050Z,24.53
2023-01-12T07:03:54.916Z,26.87
2023-01-12T07:06:22.521Z,23.13
2023-01-12T07:08:50.035Z,31.13
2023-01-12T07:11:17.495Z,23.53
2023-01-12T07:13:45.010Z,21.63
2023-01-12T07:16:13.667Z,34.10
2023-01-12T07:18:41.200Z,35.27
2023-01-12T07:21:13.553Z,45.43
2023-01-12T07:23:44.096Z,51.53
2023-01-12T07:26:12.270Z,67.23
2023-01-12T07:28:40.305Z,98.80
2023-01-12T07:31:09.311Z,100.07
2023-01-12T07:33:38.528Z,59.07
2023-01-12T07:36:06.930Z,31.20
2023-01-12T07:38:34.826Z,35.73
2023-01-12T07:41:03.458Z,29.67
2023-01-12T07:43:33.726Z,26.77
2023-01-12T07:46:02.163Z,19.90
2023-01-12T07:48:30.819Z,16.70
2023-01-12T07:51:00.036Z,18.73
2023-01-12T07:53:27.557Z,15.13
2023-01-12T07:55:55.046Z,14.23
2023-01-12T07:58:22.519Z,12.03
2023-01-12T08:00:50.049Z,18.47
2023-01-12T08:03:17.585Z,8.43
2023-01-12T08:05:45.097Z,29.27
2023-01-12T08:08:12.585Z,41.30
2023-01-12T08:10:40.986Z,8.87
2023-01-12T08:13:08.500Z,38.63
2023-01-12T08:15:49.480Z,64.47
2023-01-12T08:18:23.993Z,54.27
2023-01-12T08:20:54.349Z,17.73
2023-01-12T08:23:32.113Z,16.63
2023-01-12T08:26:05.113Z,15.10
2023-01-12T08:28:38.593Z,16.37
2023-01-12T08:31:11.125Z,9.67
2023-01-12T08:33:39.475Z,13.77
2023-01-12T08:38:44.729Z,12.87
2023-01-12T08:41:31.002Z,12.90
2023-01-12T08:44:02.220Z,10.70
2023-01-12T08:46:48.617Z,9.63
2023-01-12T08:49:19.370Z,9.73
2023-01-12T08:51:47.832Z,23.50
2023-01-12T08:54:19.008Z,21.03
2023-01-12T08:56:47.097Z,16.00
2023-01-12T08:59:14.681Z,21.57
2023-01-12T09:01:42.884Z,18.13
2023-01-12T09:04:10.466Z,15.10
2023-01-12T09:06:42.703Z,25.00
2023-01-12T09:09:14.772Z,27.23
2023-01-12T09:11:44.231Z,13.90
2023-01-12T09:14:15.509Z,9.63
2023-01-12T09:16:43.973Z,10.60
2023-01-12T09:19:11.781Z,20.40
2023-01-12T09:21:41.469Z,13.87
2023-01-12T09:24:09.599Z,13.60
2023-01-12T09:26:41.148Z,13.47
2023-01-12T09:29:10.907Z,13.23
2023-01-12T09:31:41.292Z,15.57
2023-01-12T09:34:08.951Z,22.40
2023-01-12T09:36:38.913Z,11.60
2023-01-12T09:39:12.825Z,10.20
2023-01-12T09:42:08.835Z,10.80
2023-01-12T09:45:04.120Z,12.87
2023-01-12T09:47:41.700Z,10.00
2023-01-12T09:50:17.592Z,14.60
2023-01-12T09:52:55.903Z,10.07
2023-01-12T09:55:26.631Z,6.80
2023-01-12T09:58:14.993Z,10.20
2023-01-12T10:00:44.214Z,13.27
2023-01-12T10:03:19.664Z,24.57
2023-01-12T10:06:00.787Z,25.27
2023-01-12T10:08:53.852Z,8.97
2023-01-12T10:12:09.007Z,9.30
2023-01-12T10:15:00.053Z,11.43
2023-01-12T10:17:51.578Z,11.07
2023-01-12T10:20:45.153Z,11.17
2023-01-12T10:23:16.380Z,15.93
2023-01-12T10:25:51.774Z,8.87
2023-01-12T10:28:33.248Z,9.70
2023-01-12T10:31:03.676Z,9.57
2023-01-12T10:33:34.676Z,7.27
2023-01-12T10:36:21.454Z,7.77
2023-01-12T10:39:04.567Z,10.03
2023-01-12T10:41:38.073Z,10.13
2023-01-12T10:44:23.425Z,7.77
2023-01-12T10:47:10.844Z,11.80
2023-01-12T10:49:38.393Z,8.70
2023-01-12T10:52:35.656Z,18.70
2023-01-12T10:55:03.360Z,9.17
2023-01-12T10:57:31.006Z,12.63
2023-01-12T11:00:02.785Z,9.90
2023-01-12T11:02:45.628Z,9.67
2023-01-12T11:05:38.720Z,9.83
2023-01-12T11:08:33.914Z,9.30
2023-01-12T11:11:24.367Z,7.93
2023-01-12T11:13:58.849Z,9.50
2023-01-12T11:16:33.891Z,7.00
2023-01-12T11:19:28.407Z,8.40
2023-01-12T11:22:08.164Z,8.93
2023-01-12T11:24:45.327Z,6.97
2023-01-12T11:27:28.851Z,9.20
2023-01-12T11:30:05.078Z,8.30
2023-01-12T11:32:50.107Z,34.80
2023-01-12T11:35:37.129Z,11.30
2023-01-12T11:38:21.184Z,8.27
2023-01-12T11:40:49.476Z,7.23
2023-01-12T11:43:51.090Z,17.57
2023-01-12T11:46:42.517Z,24.27
2023-01-12T11:49:27.508Z,10.00
2023-01-12T11:51:57.696Z,12.53
2023-01-12T11:54:31.190Z,5.40
2023-01-12T11:57:26.447Z,10.87
2023-01-12T11:59:53.839Z,8.70
2023-01-12T12:02:55.215Z,10.20
2023-01-12T12:06:03.872Z,4.80
2023-01-12T12:08:48.713Z,7.27
2023-01-12T12:11:54.983Z,6.77
2023-01-12T12:15:21.551Z,7.07
2023-01-12T12:18:09.742Z,7.07
2023-01-12T12:20:45.916Z,6.93
2023-01-12T12:23:30.249Z,8.03
2023-01-12T12:26:21.192Z,12.57
2023-01-12T12:29:33.906Z,11.20
2023-01-12T12:32:31.810Z,8.23
2023-01-12T12:35:30.065Z,15.33
2023-01-12T12:38:15.475Z,14.30
2023-01-12T12:41:55.093Z,9.33
2023-01-12T12:44:55.412Z,8.20
2023-01-12T12:47:52.843Z,9.33
2023-01-12T12:50:56.524Z,12.47
2023-01-12T12:53:37.042Z,8.77
2023-01-12T12:56:13.182Z,8.70
2023-01-12T12:58:52.700Z,8.43
2023-01-12T13:01:27.301Z,9.47
2023-01-12T13:04:03.308Z,8.27
2023-01-12T13:06:39.036Z,9.97
2023-01-12T13:09:12.480Z,9.50
2023-01-12T13:12:00.231Z,11.10
2023-01-12T13:14:35.925Z,14.00
2023-01-12T13:17:21.704Z,12.90
2023-01-12T13:20:16.786Z,13.27
2023-01-12T13:22:50.097Z,8.40
2023-01-12T13:25:29.592Z,8.13
2023-01-12T13:28:07.842Z,12.20
2023-01-12T13:30:40.216Z,23.07
2023-01-12T13:33:27.931Z,16.83
2023-01-12T13:36:08.140Z,16.47
2023-01-12T13:39:04.011Z,13.40
2023-01-12T13:41:53.729Z,14.13
2023-01-12T13:44:35.136Z,12.63
2023-01-12T13:47:24.962Z,14.57
2023-01-12T13:49:57.940Z,12.83
2023-01-12T13:52:35.974Z,12.83
2023-01-12T13:55:20.681Z,13.87
2023-01-12T13:58:02.547Z,12.90
2023-01-12T14:00:33.027Z,11.73
2023-01-12T14:03:03.104Z,12.63
2023-01-12T14:06:04.438Z,12.00
2023-01-12T14:08:55.751Z,12.53
2023-01-12T14:12:04.351Z,12.07
2023-01-12T14:15:15.030Z,16.53
2023-01-12T14:17:49.829Z,16.33
2023-01-12T14:20:26.667Z,15.97
2023-01-12T14:23:35.254Z,34.20
2023-01-12T14:26:13.500Z,26.47
2023-01-12T14:28:48.532Z,16.43
2023-01-12T14:31:23.183Z,13.03
2023-01-12T14:33:56.925Z,11.87
2023-01-12T14:36:42.801Z,12.30
2023-01-12T14:39:21.826Z,15.27
2023-01-12T14:42:13.246Z,11.33
2023-01-12T14:45:14.630Z,9.60
2023-01-12T14:47:43.512Z,9.10
2023-01-12T14:50:17.576Z,12.00
2023-01-12T14:52:47.007Z,20.37
2023-01-12T14:55:22.703Z,36.83
2023-01-12T14:57:57.541Z,20.23
2023-01-12T15:00:29.256Z,12.97
2023-01-12T15:03:01.037Z,11.30
2023-01-12T15:05:31.745Z,9.67
2023-01-12T15:08:04.831Z,30.47
2023-01-12T15:10:35.416Z,24.40
2023-01-12T15:13:29.979Z,23.23
2023-01-12T15:16:16.894Z,34.80
2023-01-12T15:19:03.234Z,11.03
2023-01-12T15:21:51.799Z,9.63
2023-01-12T15:24:45.486Z,9.60
2023-01-12T15:27:16.916Z,10.60
2023-01-12T15:30:04.636Z,9.83
2023-01-12T15:32:48.209Z,12.60
2023-01-12T15:35:26.603Z,12.70
2023-01-12T15:37:58.703Z,12.30
2023-01-12T15:40:28.006Z,9.63
2023-01-12T15:42:55.521Z,9.30
2023-01-12T15:45:39.766Z,8.43
2023-01-12T15:48:09.235Z,7.20
2023-01-12T15:50:42.829Z,42.87
2023-01-12T15:53:22.119Z,15.50
2023-01-12T15:55:50.287Z,8.77
2023-01-12T15:58:19.608Z,8.60
2023-01-12T16:00:47.396Z,6.73
2023-01-12T16:03:38.238Z,6.63
2023-01-12T16:06:04.661Z,5.27
2023-01-12T16:08:34.535Z,5.73
2023-01-12T16:11:13.484Z,5.97
2023-01-12T16:13:42.144Z,5.50
2023-01-12T16:16:16.631Z,5.80
2023-01-12T16:18:46.475Z,5.57
2023-01-12T16:21:19.631Z,5.90
2023-01-12T16:23:47.597Z,5.60
2023-01-12T16:26:16.451Z,43.77
2023-01-12T16:28:46.070Z,31.53
2023-01-12T16:31:15.662Z,30.70
2023-01-12T16:33:48.226Z,13.03
2023-01-12T16:36:19.189Z,6.90
2023-01-12T16:38:49.829Z,7.60
2023-01-12T16:41:44.067Z,6.90
2023-01-12T16:44:12.200Z,7.53
2023-01-12T16:46:39.748Z,10.57
2023-01-12T16:49:08.323Z,7.60
2023-01-12T16:51:35.866Z,7.70
2023-01-12T16:54:07.045Z,8.60
2023-01-12T16:56:35.609Z,27.57
2023-01-12T16:59:05.469Z,22.23
2023-01-12T17:01:35.584Z,18.13
2023-01-12T17:04:03.355Z,15.00
2023-01-12T17:06:31.554Z,20.57
2023-01-12T17:09:03.270Z,19.50
2023-01-12T17:11:35.094Z,11.63
2023-01-12T17:14:22.880Z,14.33
2023-01-12T17:16:57.671Z,23.20
2023-01-12T17:19:28.244Z,29.57
2023-01-12T17:21:58.352Z,34.67
2023-01-12T17:24:30.483Z,28.90
2023-01-12T17:26:58.723Z,22.50
2023-01-12T17:29:28.186Z,14.70
2023-01-12T17:32:06.009Z,15.90
2023-01-12T17:34:43.283Z,16.83
2023-01-12T17:37:12.753Z,15.53
2023-01-12T17:39:45.083Z,11.90
2023-01-12T17:42:35.290Z,33.43
2023-01-12T17:45:05.838Z,151.93
2023-01-12T17:47:38.781Z,166.30
2023-01-12T17:50:11.107Z,213.00
2023-01-12T17:52:38.690Z,89.33
2023-01-12T17:55:06.912Z,68.90
2023-01-12T17:57:36.491Z,39.53
2023-01-12T18:00:16.268Z,21.93
2023-01-12T18:02:45.656Z,12.90
2023-01-12T18:05:13.391Z,15.63
2023-01-12T18:07:42.130Z,26.47
2023-01-12T18:10:11.581Z,32.83
2023-01-12T18:12:40.426Z,29.07
2023-01-12T18:15:10.320Z,11.60
2023-01-12T18:17:39.515Z,11.80
2023-01-12T18:20:09.387Z,33.80
2023-01-12T18:22:37.163Z,21.67
2023-01-12T18:25:06.758Z,16.37
2023-01-12T18:27:34.305Z,21.80
2023-01-12T18:30:02.306Z,32.43
2023-01-12T18:32:30.623Z,91.30
2023-01-12T18:34:59.419Z,161.80
2023-01-12T18:37:28.430Z,69.33
2023-01-12T18:40:01.439Z,23.43
2023-01-12T18:42:49.068Z,15.77
2023-01-12T18:45:21.957Z,29.27
2023-01-12T18:48:09.437Z,12.80
2023-01-12T18:50:57.000Z,15.03
2023-01-12T18:53:33.578Z,11.47
2023-01-12T18:56:09.450Z,13.10
2023-01-12T18:58:44.856Z,11.10
2023-01-12T19:01:32.261Z,11.83
2023-01-12T19:04:03.294Z,11.33
2023-01-12T19:06:47.215Z,10.60
2023-01-12T19:09:34.954Z,12.00
2023-01-12T19:12:12.150Z,18.17
2023-01-12T19:15:00.325Z,39.07
2023-01-12T19:17:35.994Z,157.13
2023-01-12T19:20:10.315Z,113.40
2023-01-12T19:23:00.026Z,166.90
2023-01-12T19:25:50.470Z,121.83
2023-01-12T19:28:36.673Z,56.63
2023-01-12T19:31:16.545Z,26.47
2023-01-12T19:33:46.124Z,28.00
2023-01-12T19:36:20.049Z,30.70
2023-01-12T19:38:52.974Z,33.23
2023-01-12T19:41:41.594Z,37.90
2023-01-12T19:44:09.524Z,278.63
2023-01-12T19:46:38.090Z,71.73
2023-01-12T19:49:08.770Z,21.23
2023-01-12T19:51:43.311Z,26.40
2023-01-12T19:54:13.177Z,21.40
2023-01-12T19:56:59.188Z,72.60
2023-01-12T19:59:28.877Z,127.63
2023-01-12T20:02:21.459Z,61.33
2023-01-12T20:04:51.134Z,144.77
2023-01-12T20:07:21.392Z,243.97
2023-01-12T20:09:51.943Z,78.03
2023-01-12T20:12:22.330Z,43.10
2023-01-12T20:14:55.245Z,30.17
2023-01-12T20:17:28.222Z,34.93
2023-01-12T20:20:03.515Z,30.20
2023-01-12T20:22:37.072Z,30.67
2023-01-12T20:25:07.577Z,59.70
2023-01-12T20:27:37.463Z,18.87
2023-01-12T20:30:11.475Z,28.73
2023-01-12T20:32:46.761Z,15.87
2023-01-12T20:35:23.124Z,13.40
2023-01-12T20:37:55.330Z,28.30
2023-01-12T20:40:23.374Z,10.70
2023-01-12T20:42:51.534Z,12.00
2023-01-12T20:45:19.299Z,9.90
2023-01-12T20:47:47.811Z,10.83
2023-01-12T20:50:16.917Z,16.13
2023-01-12T20:52:48.273Z,16.20
2023-01-12T20:55:15.977Z,18.70
2023-01-12T20:57:43.887Z,16.33
2023-01-12T21:00:14.277Z,15.77
2023-01-12T21:02:42.832Z,19.13
2023-01-12T21:05:14.730Z,24.77
2023-01-12T21:07:44.789Z,33.30
2023-01-12T21:10:14.108Z,13.00
2023-01-12T21:12:44.205Z,16.73
2023-01-12T21:15:13.711Z,24.97
2023-01-12T21:17:42.918Z,16.70
2023-01-12T21:20:12.401Z,55.13
2023-01-12T21:22:40.062Z,47.00
2023-01-12T21:25:11.129Z,149.63
2023-01-12T21:27:39.526Z,54.10
2023-01-12T21:30:11.252Z,71.17
2023-01-12T21:32:39.032Z,19.57
2023-01-12T21:35:10.658Z,52.53
2023-01-12T21:37:38.249Z,27.57
2023-01-12T21:40:07.000Z,41.13
2023-01-12T21:42:53.141Z,50.23
2023-01-12T21:45:23.732Z,26.80
2023-01-12T21:47:52.204Z,37.27
2023-01-12T21:50:19.684Z,33.63
2023-01-12T21:52:48.221Z,16.43
2023-01-12T21:55:16.005Z,10.83
2023-01-12T21:57:46.547Z,9.33
2023-01-12T22:00:14.968Z,10.90
2023-01-12T22:02:43.144Z,10.30
2023-01-12T22:05:13.703Z,10.07
2023-01-12T22:07:41.878Z,7.50
2023-01-12T22:10:22.090Z,7.17
2023-01-12T22:12:55.711Z,6.33
2023-01-12T22:15:25.007Z,6.33
2023-01-12T22:17:54.688Z,5.30
2023-01-12T22:20:27.800Z,5.20
2023-01-12T22:22:55.765Z,5.23
2023-01-12T22:25:23.543Z,6.47
2023-01-12T22:27:51.145Z,7.03
2023-01-12T22:30:24.126Z,8.37
2023-01-12T22:32:56.293Z,7.03
2023-01-12T22:35:26.208Z,7.30
2023-01-12T22:37:55.853Z,9.50
2023-01-12T22:40:29.860Z,7.77
2023-01-12T22:43:16.061Z,6.13
2023-01-12T22:45:45.767Z,5.83
2023-01-12T22:48:13.263Z,8.00
2023-01-12T22:50:40.826Z,6.57
2023-01-12T22:53:08.384Z,6.20
2023-01-12T22:55:42.021Z,8.13
2023-01-12T22:58:09.627Z,6.77
2023-01-12T23:00:39.821Z,6.83
2023-01-12T23:03:12.040Z,7.63
2023-01-12T23:05:56.247Z,7.07
2023-01-12T23:08:25.370Z,6.07
2023-01-12T23:11:01.187Z,6.90
2023-01-12T23:13:28.849Z,7.10
2023-01-12T23:15:58.139Z,6.83
2023-01-12T23:18:29.482Z,7.43
2023-01-12T23:21:11.198Z,8.23
2023-01-12T23:23:46.635Z,7.50
2023-01-12T23:26:18.450Z,9.10
2023-01-12T23:28:50.218Z,8.90
2023-01-12T23:31:21.706Z,7.90
2023-01-12T23:33:50.541Z,7.73
2023-01-12T23:36:21.902Z,8.43
2023-01-12T23:39:01.071Z,7.83
2023-01-12T23:41:32.345Z,7.83
2023-01-12T23:44:02.696Z,7.00
2023-01-12T23:46:33.904Z,8.67
2023-01-12T23:49:01.940Z,11.17
2023-01-12T23:51:31.220Z,7.13
2023-01-12T23:54:03.068Z,8.93
2023-01-12T23:56:32.918Z,10.17
2023-01-12T23:59:00.739Z,12.90
